createdAt,value
2022-09-28T00:00:30.405Z,9.40
2022-09-28T00:02:57.671Z,9.40
2022-09-28T00:05:26.928Z,9.40
2022-09-28T00:07:54.137Z,9.40
2022-09-28T00:10:23.543Z,9.30
2022-09-28T00:12:51.111Z,9.40
2022-09-28T00:15:18.108Z,9.40
2022-09-28T00:17:44.994Z,11.20
2022-09-28T00:20:12.037Z,9.60
2022-09-28T00:22:38.761Z,9.50
2022-09-28T00:25:06.338Z,9.40
2022-09-28T00:27:32.940Z,9.40
2022-09-28T00:30:00.035Z,9.30
2022-09-28T00:32:26.867Z,9.50
2022-09-28T00:34:53.700Z,9.40
2022-09-28T00:37:20.361Z,9.40
2022-09-28T00:39:48.284Z,9.40
2022-09-28T00:42:21.963Z,9.50
2022-09-28T00:44:50.006Z,9.50
2022-09-28T00:47:16.561Z,9.50
2022-09-28T00:49:48.924Z,9.50
2022-09-28T00:52:18.523Z,9.50
2022-09-28T00:54:46.593Z,9.50
2022-09-28T00:57:13.847Z,9.50
2022-09-28T00:59:40.685Z,9.40
2022-09-28T01:02:07.516Z,9.30
2022-09-28T01:04:34.157Z,9.30
2022-09-28T01:07:00.773Z,9.30
2022-09-28T01:09:27.603Z,9.30
2022-09-28T01:11:55.179Z,9.30
2022-09-28T01:14:25.609Z,9.20
2022-09-28T01:16:58.852Z,9.10
2022-09-28T01:19:45.689Z,9.10
2022-09-28T01:22:12.241Z,9.10
2022-09-28T01:24:49.007Z,9.10
2022-09-28T01:27:18.092Z,9.00
2022-09-28T01:29:51.574Z,9.10
2022-09-28T01:32:38.251Z,9.00
2022-09-28T01:35:04.845Z,9.00
2022-09-28T01:37:44.684Z,9.10
2022-09-28T01:40:12.173Z,9.10
2022-09-28T01:42:39.673Z,9.10
2022-09-28T01:45:09.410Z,9.10
2022-09-28T01:47:37.732Z,9.20
2022-09-28T01:50:07.243Z,9.20
2022-09-28T01:52:45.575Z,9.30
2022-09-28T01:55:32.431Z,9.30
2022-09-28T01:58:04.780Z,9.30
2022-09-28T02:00:32.505Z,9.30
2022-09-28T02:02:59.069Z,9.40
2022-09-28T02:05:31.284Z,9.40
2022-09-28T02:08:08.934Z,9.40
2022-09-28T02:10:39.591Z,9.50
2022-09-28T02:13:11.313Z,9.50
2022-09-28T02:15:56.135Z,9.50
2022-09-28T02:18:22.817Z,9.50
2022-09-28T02:20:53.145Z,9.60
2022-09-28T02:23:21.599Z,9.50
2022-09-28T02:25:51.786Z,9.50
2022-09-28T02:28:18.588Z,9.60
2022-09-28T02:30:45.552Z,9.50
2022-09-28T02:33:14.080Z,9.50
2022-09-28T02:35:41.916Z,9.50
2022-09-28T02:38:10.253Z,9.40
2022-09-28T02:40:37.961Z,9.50
2022-09-28T02:43:23.435Z,9.40
2022-09-28T02:46:08.712Z,9.40
2022-09-28T02:49:00.068Z,9.30
2022-09-28T02:51:47.698Z,9.40
2022-09-28T02:54:41.222Z,9.40
2022-09-28T02:57:13.775Z,9.30
2022-09-28T02:59:59.049Z,9.30
2022-09-28T03:02:25.887Z,9.40
2022-09-28T03:05:01.069Z,9.40
2022-09-28T03:07:30.271Z,9.40
2022-09-28T03:10:05.336Z,9.40
2022-09-28T03:12:33.241Z,9.50
2022-09-28T03:15:06.843Z,9.50
2022-09-28T03:17:33.411Z,9.50
2022-09-28T03:20:00.127Z,9.40
2022-09-28T03:22:26.726Z,9.50
2022-09-28T03:24:53.293Z,9.40
2022-09-28T03:27:20.045Z,9.40
2022-09-28T03:29:46.604Z,9.30
2022-09-28T03:32:13.176Z,9.20
2022-09-28T03:34:39.907Z,9.10
2022-09-28T03:37:06.463Z,9.10
2022-09-28T03:39:33.255Z,9.00
2022-09-28T03:42:00.338Z,9.00
2022-09-28T03:44:26.907Z,9.00
2022-09-28T03:46:53.467Z,9.00
2022-09-28T03:49:20.016Z,8.90
2022-09-28T03:51:46.915Z,8.90
2022-09-28T03:54:13.816Z,9.00
2022-09-28T03:56:40.650Z,9.00
2022-09-28T03:59:07.223Z,9.00
2022-09-28T04:01:33.838Z,9.10
2022-09-28T04:04:00.528Z,9.10
2022-09-28T04:06:27.160Z,9.00
2022-09-28T04:08:53.853Z,9.10
2022-09-28T04:11:20.423Z,9.20
2022-09-28T04:13:50.188Z,9.20
2022-09-28T04:16:17.893Z,9.20
2022-09-28T04:18:44.565Z,9.20
2022-09-28T04:21:12.205Z,9.20
2022-09-28T04:23:39.697Z,9.30
2022-09-28T04:26:07.588Z,9.30
2022-09-28T04:28:52.614Z,9.40
2022-09-28T04:31:20.808Z,9.40
2022-09-28T04:33:47.557Z,9.40
2022-09-28T04:36:14.328Z,9.40
2022-09-28T04:38:52.855Z,9.40
2022-09-28T04:41:22.113Z,9.40
2022-09-28T04:43:49.625Z,9.40
2022-09-28T04:46:16.334Z,9.20
2022-09-28T04:48:43.072Z,9.30
2022-09-28T04:51:09.678Z,9.20
2022-09-28T04:53:36.257Z,9.20
2022-09-28T04:56:04.969Z,9.20
2022-09-28T04:58:31.868Z,9.10
2022-09-28T05:01:02.951Z,9.20
2022-09-28T05:03:29.581Z,9.30
2022-09-28T05:05:56.286Z,9.30
2022-09-28T05:08:23.842Z,9.30
2022-09-28T05:10:56.438Z,9.30
2022-09-28T05:13:23.027Z,9.30
2022-09-28T05:15:56.209Z,9.30
2022-09-28T05:18:25.226Z,9.30
2022-09-28T05:20:51.868Z,9.20
2022-09-28T05:23:18.441Z,9.10
2022-09-28T05:25:47.989Z,9.10
2022-09-28T05:28:14.568Z,9.10
2022-09-28T05:30:41.135Z,9.10
2022-09-28T05:33:08.978Z,9.20
2022-09-28T05:35:36.148Z,9.10
2022-09-28T05:38:03.584Z,9.00
2022-09-28T05:40:30.221Z,9.10
2022-09-28T05:43:01.008Z,10.70
2022-09-28T05:45:28.228Z,9.10
2022-09-28T05:47:54.925Z,9.20
2022-09-28T05:50:21.491Z,9.20
2022-09-28T05:52:50.140Z,9.20
2022-09-28T05:55:16.740Z,9.20
2022-09-28T05:57:43.361Z,9.10
2022-09-28T06:00:10.181Z,8.90
2022-09-28T06:02:36.931Z,8.90
2022-09-28T06:05:03.604Z,8.90
2022-09-28T06:07:30.199Z,8.90
2022-09-28T06:09:56.863Z,8.80
2022-09-28T06:12:23.482Z,8.80
2022-09-28T06:14:50.033Z,8.80
2022-09-28T06:17:16.749Z,8.70
2022-09-28T06:19:44.128Z,8.60
2022-09-28T06:22:10.687Z,8.70
2022-09-28T06:24:37.410Z,8.70
2022-09-28T06:27:04.024Z,8.60
2022-09-28T06:29:31.286Z,8.60
2022-09-28T06:31:58.027Z,8.60
2022-09-28T06:34:24.807Z,8.50
2022-09-28T06:36:51.568Z,8.60
2022-09-28T06:39:18.153Z,8.60
2022-09-28T06:41:44.732Z,8.60
2022-09-28T06:44:11.339Z,8.80
2022-09-28T06:46:38.768Z,8.80
2022-09-28T06:49:09.191Z,8.80
2022-09-28T06:51:36.663Z,8.90
2022-09-28T06:54:03.525Z,8.80
2022-09-28T06:56:32.869Z,8.70
2022-09-28T06:58:59.792Z,8.80
2022-09-28T07:01:26.406Z,8.70
2022-09-28T07:03:55.644Z,8.80
2022-09-28T07:06:24.187Z,8.80
2022-09-28T07:08:56.813Z,9.20
2022-09-28T07:11:41.967Z,8.80
2022-09-28T07:14:13.586Z,8.80
2022-09-28T07:17:08.652Z,8.80
2022-09-28T07:19:32.567Z,8.90
2022-09-28T07:22:04.861Z,11.40
2022-09-28T07:24:32.115Z,8.90
2022-09-28T07:26:59.216Z,9.00
2022-09-28T07:29:25.903Z,9.00
2022-09-28T07:31:53.405Z,9.10
2022-09-28T07:34:23.055Z,9.20
2022-09-28T07:36:49.644Z,9.20
2022-09-28T07:39:16.305Z,9.10
2022-09-28T07:41:44.260Z,9.20
2022-09-28T07:44:10.934Z,9.20
2022-09-28T07:46:37.570Z,9.30
2022-09-28T07:49:09.958Z,9.40
2022-09-28T07:51:39.054Z,9.40
2022-09-28T07:54:06.569Z,9.50
2022-09-28T07:56:34.859Z,9.40
2022-09-28T07:59:01.489Z,9.50
2022-09-28T08:01:30.529Z,9.40
2022-09-28T08:03:58.302Z,9.30
2022-09-28T08:06:24.870Z,11.00
2022-09-28T08:08:52.846Z,9.50
2022-09-28T08:11:19.421Z,9.50
2022-09-28T08:13:47.404Z,9.60
2022-09-28T08:16:14.120Z,9.60
2022-09-28T08:18:40.815Z,9.60
2022-09-28T08:21:26.200Z,9.60
2022-09-28T08:23:53.148Z,9.60
2022-09-28T08:26:19.876Z,9.70
2022-09-28T08:28:47.779Z,9.70
2022-09-28T08:31:14.659Z,9.70
2022-09-28T08:33:42.118Z,9.80
2022-09-28T08:36:09.733Z,9.80
2022-09-28T08:38:36.395Z,9.80
2022-09-28T08:41:15.538Z,9.80
2022-09-28T08:43:47.931Z,9.80
2022-09-28T08:46:17.237Z,9.80
2022-09-28T08:49:24.254Z,9.80
2022-09-28T08:52:04.508Z,9.80
2022-09-28T08:54:31.072Z,9.80
2022-09-28T08:57:06.820Z,9.90
2022-09-28T08:59:41.793Z,9.90
2022-09-28T09:02:14.273Z,9.80
2022-09-28T09:04:40.869Z,9.90
2022-09-28T09:07:19.688Z,9.90
2022-09-28T09:09:46.245Z,9.90
2022-09-28T09:12:19.658Z,10.00
2022-09-28T09:14:56.581Z,10.10
2022-09-28T09:17:32.442Z,10.20
2022-09-28T09:20:02.128Z,10.30
2022-09-28T09:22:31.663Z,10.30
2022-09-28T09:25:18.196Z,10.10
2022-09-28T09:27:50.969Z,9.80
2022-09-28T09:30:20.556Z,9.90
2022-09-28T09:32:47.247Z,9.90
2022-09-28T09:35:32.561Z,9.80
2022-09-28T09:38:19.133Z,9.80
2022-09-28T09:40:58.100Z,9.80
2022-09-28T09:43:43.032Z,9.80
2022-09-28T09:46:17.984Z,9.80
2022-09-28T09:48:50.516Z,9.90
2022-09-28T09:51:23.776Z,10.00
2022-09-28T09:53:59.928Z,10.10
2022-09-28T09:56:45.220Z,10.20
2022-09-28T09:59:14.043Z,10.10
2022-09-28T10:01:41.407Z,10.20
2022-09-28T10:04:31.073Z,10.10
2022-09-28T10:07:01.267Z,10.20
2022-09-28T10:09:32.705Z,10.20
2022-09-28T10:11:59.255Z,10.20
2022-09-28T10:14:26.219Z,10.20
2022-09-28T10:16:53.875Z,10.20
2022-09-28T10:19:21.637Z,10.30
2022-09-28T10:21:50.547Z,10.20
2022-09-28T10:24:28.959Z,10.10
2022-09-28T10:26:58.319Z,10.20
2022-09-28T10:29:26.028Z,10.30
2022-09-28T10:31:53.248Z,10.30
2022-09-28T10:34:29.828Z,10.30
2022-09-28T10:36:58.185Z,10.50
2022-09-28T10:39:27.847Z,10.50
2022-09-28T10:41:54.545Z,10.70
2022-09-28T10:44:22.255Z,10.60
2022-09-28T10:46:56.036Z,10.40
2022-09-28T10:49:24.234Z,10.40
2022-09-28T10:51:52.084Z,10.40
2022-09-28T10:54:20.023Z,12.50
2022-09-28T10:56:47.177Z,10.60
2022-09-28T10:59:29.133Z,10.80
2022-09-28T11:01:57.649Z,10.80
2022-09-28T11:04:26.590Z,10.80
2022-09-28T11:09:31.159Z,11.10
2022-09-28T11:11:59.088Z,11.20
2022-09-28T11:14:25.651Z,11.60
2022-09-28T11:17:11.104Z,11.50
2022-09-28T11:19:38.161Z,11.40
2022-09-28T11:22:20.199Z,11.50
2022-09-28T11:24:48.113Z,11.30
2022-09-28T11:27:22.595Z,11.20
2022-09-28T11:29:58.658Z,11.20
2022-09-28T11:32:28.113Z,11.30
2022-09-28T11:34:59.738Z,11.30
2022-09-28T11:37:31.161Z,11.90
2022-09-28T11:40:10.632Z,11.30
2022-09-28T11:42:43.752Z,11.60
2022-09-28T11:45:32.625Z,11.90
2022-09-28T11:48:01.831Z,11.80
2022-09-28T11:50:31.295Z,12.10
2022-09-28T11:53:03.644Z,12.20
2022-09-28T11:55:36.582Z,12.40
2022-09-28T11:58:06.269Z,12.40
2022-09-28T12:00:36.768Z,12.40
2022-09-28T12:03:22.687Z,12.40
2022-09-28T12:05:52.030Z,12.30
2022-09-28T12:08:21.959Z,12.30
2022-09-28T12:10:55.515Z,12.50
2022-09-28T12:13:25.574Z,12.60
2022-09-28T12:16:32.311Z,12.70
2022-09-28T12:18:56.369Z,12.80
2022-09-28T12:21:37.422Z,12.80
2022-09-28T12:24:07.774Z,12.90
2022-09-28T12:26:43.708Z,13.50
2022-09-28T12:29:14.745Z,12.70
2022-09-28T12:31:51.861Z,14.30
2022-09-28T12:34:18.489Z,12.80
2022-09-28T12:37:03.139Z,13.40
2022-09-28T12:39:57.612Z,12.90
2022-09-28T12:42:35.660Z,12.80
2022-09-28T12:45:17.481Z,12.80
2022-09-28T12:48:02.205Z,12.90
2022-09-28T12:50:54.550Z,12.80
2022-09-28T12:53:31.210Z,12.70
2022-09-28T12:56:06.400Z,12.80
2022-09-28T12:58:41.521Z,12.70
2022-09-28T13:01:14.227Z,12.80
2022-09-28T13:03:49.996Z,12.90
2022-09-28T13:06:16.576Z,12.70
2022-09-28T13:09:01.956Z,14.60
2022-09-28T13:11:48.101Z,12.80
2022-09-28T13:14:29.296Z,12.80
2022-09-28T13:17:00.959Z,12.60
2022-09-28T13:19:50.690Z,12.40
2022-09-28T13:22:30.009Z,12.10
2022-09-28T13:24:59.224Z,11.90
2022-09-28T13:27:31.764Z,11.70
2022-09-28T13:30:00.859Z,11.60
2022-09-28T13:32:31.717Z,11.60
2022-09-28T13:34:58.719Z,11.70
2022-09-28T13:37:25.571Z,11.70
2022-09-28T13:39:53.577Z,11.70
2022-09-28T13:42:38.965Z,11.90
2022-09-28T13:45:13.317Z,11.50
2022-09-28T13:47:49.764Z,12.00
2022-09-28T13:50:28.700Z,11.40
2022-09-28T13:52:55.253Z,11.50
2022-09-28T13:55:28.828Z,11.50
2022-09-28T13:58:17.547Z,11.60
2022-09-28T14:00:53.609Z,11.60
2022-09-28T14:03:25.351Z,11.70
2022-09-28T14:06:11.470Z,11.60
2022-09-28T14:08:45.629Z,11.60
2022-09-28T14:11:24.618Z,11.70
2022-09-28T14:14:00.115Z,11.70
2022-09-28T14:16:28.329Z,11.60
2022-09-28T14:18:57.583Z,11.60
2022-09-28T14:21:42.157Z,11.60
2022-09-28T14:24:18.016Z,11.70
2022-09-28T14:27:03.593Z,11.70
2022-09-28T14:29:32.424Z,11.60
2022-09-28T14:32:04.263Z,11.60
2022-09-28T14:34:36.456Z,11.50
2022-09-28T14:37:24.218Z,11.50
2022-09-28T14:40:09.359Z,11.30
2022-09-28T14:42:35.993Z,11.40
2022-09-28T14:45:06.195Z,11.50
2022-09-28T14:47:35.184Z,11.40
2022-09-28T14:50:02.505Z,11.50
2022-09-28T14:53:01.765Z,11.30
2022-09-28T14:55:31.732Z,11.40
2022-09-28T14:57:59.087Z,11.40
2022-09-28T15:00:29.249Z,11.40
2022-09-28T15:02:59.366Z,11.40
2022-09-28T15:05:37.212Z,11.30
2022-09-28T15:08:04.270Z,11.30
2022-09-28T15:10:32.351Z,11.00
2022-09-28T15:13:03.287Z,11.00
2022-09-28T15:15:31.872Z,11.60
2022-09-28T15:18:18.722Z,10.50
2022-09-28T15:20:49.170Z,10.60
2022-09-28T15:23:26.592Z,10.60
2022-09-28T15:25:54.198Z,10.40
2022-09-28T15:28:24.957Z,10.40
2022-09-28T15:30:51.934Z,10.30
2022-09-28T15:33:47.346Z,10.40
2022-09-28T15:36:25.385Z,10.40
2022-09-28T15:38:56.667Z,10.40
2022-09-28T15:41:24.536Z,10.40
2022-09-28T15:44:09.932Z,10.40
2022-09-28T15:46:38.906Z,10.40
2022-09-28T15:49:06.234Z,10.40
2022-09-28T15:51:45.839Z,10.20
2022-09-28T15:54:19.418Z,10.30
2022-09-28T15:56:54.832Z,10.30
2022-09-28T15:59:24.245Z,10.30
2022-09-28T16:02:05.109Z,10.20
2022-09-28T16:04:40.073Z,10.20
2022-09-28T16:07:12.608Z,10.10
2022-09-28T16:10:00.986Z,10.10
2022-09-28T16:12:48.553Z,10.10
2022-09-28T16:15:41.640Z,10.10
2022-09-28T16:18:16.238Z,10.20
2022-09-28T16:20:43.594Z,10.20
2022-09-28T16:23:16.041Z,10.30
2022-09-28T16:25:54.892Z,10.10
2022-09-28T16:28:48.754Z,10.10
2022-09-28T16:31:15.548Z,10.10
2022-09-28T16:33:48.912Z,10.00
2022-09-28T16:36:17.033Z,10.00
2022-09-28T16:38:44.310Z,9.80
2022-09-28T16:41:11.547Z,9.90
2022-09-28T16:43:38.112Z,9.80
2022-09-28T16:46:12.782Z,9.90
2022-09-28T16:48:49.648Z,9.90
2022-09-28T16:51:16.998Z,9.70
2022-09-28T16:54:02.927Z,9.80
2022-09-28T16:56:30.169Z,9.80
2022-09-28T16:58:56.834Z,9.80
2022-09-28T17:01:24.174Z,9.80
2022-09-28T17:03:51.060Z,9.80
2022-09-28T17:06:18.785Z,9.80
2022-09-28T17:08:45.555Z,9.80
2022-09-28T17:11:20.484Z,9.80
2022-09-28T17:13:50.214Z,9.70
2022-09-28T17:16:32.278Z,9.80
2022-09-28T17:19:18.937Z,13.30
2022-09-28T17:21:45.888Z,9.90
2022-09-28T17:24:12.631Z,9.80
2022-09-28T17:26:39.599Z,9.80
2022-09-28T17:29:08.754Z,9.80
2022-09-28T17:31:35.332Z,9.80
2022-09-28T17:34:01.899Z,9.80
2022-09-28T17:36:30.385Z,9.80
2022-09-28T17:38:57.232Z,9.80
2022-09-28T17:41:23.864Z,9.80
2022-09-28T17:43:50.432Z,9.80
2022-09-28T17:46:17.166Z,9.80
2022-09-28T17:48:46.675Z,9.80
2022-09-28T17:51:13.825Z,9.70
2022-09-28T17:53:40.808Z,9.60
2022-09-28T17:56:07.400Z,9.50
2022-09-28T17:58:34.249Z,9.60
2022-09-28T18:01:00.889Z,9.50
2022-09-28T18:03:27.465Z,9.50
2022-09-28T18:06:04.293Z,9.60
2022-09-28T18:08:31.088Z,9.60
2022-09-28T18:10:57.673Z,9.60
2022-09-28T18:13:24.822Z,10.20
2022-09-28T18:15:52.035Z,11.80
2022-09-28T18:18:18.672Z,10.60
2022-09-28T18:20:45.504Z,10.30
2022-09-28T18:23:12.139Z,9.50
2022-09-28T18:25:39.191Z,9.50
2022-09-28T18:28:05.770Z,9.50
2022-09-28T18:30:32.437Z,9.30
2022-09-28T18:32:59.072Z,9.30
2022-09-28T18:35:25.636Z,9.20
2022-09-28T18:37:52.206Z,9.10
2022-09-28T18:40:20.050Z,8.90
2022-09-28T18:42:46.647Z,8.90
2022-09-28T18:45:13.807Z,8.70
2022-09-28T18:47:40.458Z,8.60
2022-09-28T18:50:07.303Z,8.60
2022-09-28T18:52:37.090Z,8.60
2022-09-28T18:55:04.261Z,8.60
2022-09-28T18:57:33.490Z,8.60
2022-09-28T19:00:06.848Z,8.60
2022-09-28T19:02:33.637Z,8.60
2022-09-28T19:05:00.323Z,8.70
2022-09-28T19:07:27.079Z,9.40
2022-09-28T19:09:53.765Z,9.10
2022-09-28T19:12:20.458Z,8.60
2022-09-28T19:14:47.080Z,8.50
2022-09-28T19:17:13.717Z,8.50
2022-09-28T19:19:42.652Z,8.50
2022-09-28T19:22:09.263Z,8.40
2022-09-28T19:24:35.837Z,8.40
2022-09-28T19:27:02.408Z,8.40
2022-09-28T19:29:28.972Z,8.40
2022-09-28T19:31:57.033Z,8.40
2022-09-28T19:34:26.857Z,11.00
2022-09-28T19:36:53.488Z,8.50
2022-09-28T19:39:20.069Z,8.80
2022-09-28T19:41:51.192Z,8.50
2022-09-28T19:44:27.528Z,9.50
2022-09-28T19:46:58.357Z,8.60
2022-09-28T19:49:25.872Z,8.60
2022-09-28T19:52:13.984Z,10.00
2022-09-28T19:54:43.783Z,8.50
2022-09-28T19:57:11.540Z,8.60
2022-09-28T19:59:38.560Z,9.10
2022-09-28T20:02:05.787Z,10.50
2022-09-28T20:04:32.516Z,8.50
2022-09-28T20:06:59.270Z,8.50
2022-09-28T20:09:25.828Z,10.10
2022-09-28T20:11:53.108Z,10.10
2022-09-28T20:14:20.170Z,8.90
2022-09-28T20:16:48.104Z,8.70
2022-09-28T20:19:14.836Z,8.60
2022-09-28T20:21:41.510Z,8.70
2022-09-28T20:24:10.730Z,9.50
2022-09-28T20:26:37.843Z,8.60
2022-09-28T20:29:05.107Z,8.60
2022-09-28T20:31:31.750Z,8.60
2022-09-28T20:33:58.506Z,9.50
2022-09-28T20:36:25.527Z,8.70
2022-09-28T20:38:53.182Z,8.80
2022-09-28T20:41:21.992Z,8.80
2022-09-28T20:43:52.990Z,8.90
2022-09-28T20:46:22.032Z,8.90
2022-09-28T20:48:51.969Z,8.80
2022-09-28T20:51:19.760Z,8.90
2022-09-28T20:53:47.462Z,9.60
2022-09-28T20:56:16.952Z,8.90
2022-09-28T20:58:43.517Z,10.50
2022-09-28T21:01:12.404Z,9.60
2022-09-28T21:03:39.488Z,9.90
2022-09-28T21:06:12.059Z,9.00
2022-09-28T21:08:38.901Z,9.00
2022-09-28T21:11:07.164Z,9.00
2022-09-28T21:13:33.764Z,9.00
2022-09-28T21:16:04.057Z,9.00
2022-09-28T21:18:30.806Z,9.00
2022-09-28T21:20:57.379Z,9.00
2022-09-28T21:23:25.082Z,9.50
2022-09-28T21:26:00.542Z,10.70
2022-09-28T21:28:27.100Z,9.10
2022-09-28T21:30:53.875Z,9.10
2022-09-28T21:33:20.661Z,9.10
2022-09-28T21:35:47.239Z,9.20
2022-09-28T21:38:13.995Z,10.00
2022-09-28T21:40:41.035Z,9.00
2022-09-28T21:43:07.952Z,9.00
2022-09-28T21:45:34.534Z,9.10
2022-09-28T21:48:01.211Z,9.10
2022-09-28T21:50:27.853Z,9.00
2022-09-28T21:52:55.392Z,9.10
2022-09-28T21:55:23.249Z,10.90
2022-09-28T21:57:53.576Z,9.00
2022-09-28T22:00:23.165Z,9.00
2022-09-28T22:02:50.330Z,10.40
2022-09-28T22:05:17.056Z,8.90
2022-09-28T22:07:44.189Z,8.90
2022-09-28T22:10:12.191Z,9.60
2022-09-28T22:12:38.757Z,8.90
2022-09-28T22:15:05.712Z,8.80
2022-09-28T22:17:32.289Z,8.90
2022-09-28T22:19:58.868Z,9.90
2022-09-28T22:22:29.076Z,8.80
2022-09-28T22:24:56.162Z,9.80
2022-09-28T22:27:22.890Z,8.70
2022-09-28T22:29:49.580Z,9.00
2022-09-28T22:32:17.922Z,8.80
2022-09-28T22:34:44.583Z,10.30
2022-09-28T22:37:11.296Z,8.80
2022-09-28T22:39:38.952Z,8.80
2022-09-28T22:42:05.684Z,9.20
2022-09-28T22:44:32.401Z,8.90
2022-09-28T22:46:58.959Z,8.90
2022-09-28T22:49:26.460Z,9.90
2022-09-28T22:51:53.407Z,8.90
2022-09-28T22:54:20.888Z,10.30
2022-09-28T22:56:47.480Z,8.90
2022-09-28T22:59:14.223Z,9.00
2022-09-28T23:01:40.921Z,9.00
2022-09-28T23:04:08.927Z,9.00
2022-09-28T23:06:35.507Z,8.90
2022-09-28T23:09:02.179Z,9.00
2022-09-28T23:11:29.108Z,9.00
2022-09-28T23:13:56.826Z,9.00
2022-09-28T23:16:25.594Z,9.00
2022-09-28T23:18:53.005Z,9.00
2022-09-28T23:21:20.572Z,8.90
2022-09-28T23:23:52.183Z,8.90
2022-09-28T23:26:20.080Z,8.90
2022-09-28T23:28:46.647Z,8.80
2022-09-28T23:31:23.624Z,10.60
2022-09-28T23:33:50.665Z,9.00
2022-09-28T23:36:17.670Z,9.00
2022-09-28T23:38:44.333Z,9.00
2022-09-28T23:41:11.219Z,10.80
2022-09-28T23:43:37.957Z,10.40
2022-09-28T23:46:05.081Z,9.10
2022-09-28T23:48:31.834Z,9.10
2022-09-28T23:50:58.492Z,9.10
2022-09-28T23:53:25.136Z,9.40
2022-09-28T23:55:51.783Z,10.40
2022-09-28T23:58:18.397Z,9.10
